sensor_id;sensor_type;location;lat;lon;timestamp;pressure;altitude;pressure_sealevel;temperature;humidity
11987;BME280;6053;51.382;6.768;2023-02-12T00:01:26;103437.19;;;11.07;100.00
11987;BME280;6053;51.382;6.768;2023-02-12T00:03:55;103441.66;;;11.08;100.00
11987;BME280;6053;51.382;6.768;2023-02-12T00:06:26;103443.56;;;11.08;100.00
11987;BME280;6053;51.382;6.768;2023-02-12T00:08:56;103439.97;;;11.16;100.00
11987;BME280;6053;51.382;6.768;2023-02-12T00:11:26;103446.34;;;11.16;100.00
11987;BME280;6053;51.382;6.768;2023-02-12T00:13:56;103443.41;;;11.18;100.00
11987;BME280;6053;51.382;6.768;2023-02-12T00:16:27;103437.56;;;11.21;100.00
11987;BME280;6053;51.382;6.768;2023-02-12T00:18:56;103436.50;;;11.22;100.00
11987;BME280;6053;51.382;6.768;2023-02-12T00:21:27;103431.31;;;11.19;100.00
11987;BME280;6053;51.382;6.768;2023-02-12T00:23:56;103430.66;;;11.17;100.00
11987;BME280;6053;51.382;6.768;2023-02-12T00:26:25;103439.09;;;11.15;100.00
11987;BME280;6053;51.382;6.768;2023-02-12T00:28:54;103440.28;;;11.13;100.00
11987;BME280;6053;51.382;6.768;2023-02-12T00:31:24;103442.91;;;11.14;100.00
11987;BME280;6053;51.382;6.768;2023-02-12T00:33:54;103449.63;;;11.20;100.00
11987;BME280;6053;51.382;6.768;2023-02-12T00:36:28;103447.41;;;11.23;100.00
11987;BME280;6053;51.382;6.768;2023-02-12T00:38:58;103442.03;;;11.22;100.00
11987;BME280;6053;51.382;6.768;2023-02-12T00:41:27;103442.75;;;11.24;100.00
11987;BME280;6053;51.382;6.768;2023-02-12T00:43:56;103435.84;;;11.28;100.00
11987;BME280;6053;51.382;6.768;2023-02-12T00:46:25;103448.63;;;11.21;100.00
11987;BME280;6053;51.382;6.768;2023-02-12T00:48:53;103451.88;;;11.16;100.00
11987;BME280;6053;51.382;6.768;2023-02-12T00:51:22;103437.34;;;11.06;100.00
11987;BME280;6053;51.382;6.768;2023-02-12T00:53:52;103435.25;;;11.00;100.00
11987;BME280;6053;51.382;6.768;2023-02-12T00:56:21;103444.09;;;11.03;100.00
11987;BME280;6053;51.382;6.768;2023-02-12T00:58:49;103443.56;;;11.08;100.00
11987;BME280;6053;51.382;6.768;2023-02-12T01:01:18;103440.47;;;11.11;100.00
11987;BME280;6053;51.382;6.768;2023-02-12T01:03:47;103433.91;;;11.12;100.00
11987;BME280;6053;51.382;6.768;2023-02-12T01:06:16;103428.22;;;11.14;100.00
11987;BME280;6053;51.382;6.768;2023-02-12T01:08:44;103433.22;;;11.18;100.00
11987;BME280;6053;51.382;6.768;2023-02-12T01:11:14;103435.13;;;11.18;100.00
11987;BME280;6053;51.382;6.768;2023-02-12T01:13:43;103434.59;;;11.22;100.00
11987;BME280;6053;51.382;6.768;2023-02-12T01:16:15;103430.81;;;11.15;100.00
11987;BME280;6053;51.382;6.768;2023-02-12T01:18:45;103434.94;;;11.19;100.00
11987;BME280;6053;51.382;6.768;2023-02-12T01:21:16;103435.66;;;11.21;100.00
11987;BME280;6053;51.382;6.768;2023-02-12T01:23:46;103428.56;;;11.19;100.00
11987;BME280;6053;51.382;6.768;2023-02-12T01:26:18;103424.94;;;11.18;100.00
11987;BME280;6053;51.382;6.768;2023-02-12T01:28:50;103429.59;;;11.18;100.00
11987;BME280;6053;51.382;6.768;2023-02-12T01:31:22;103430.47;;;11.18;100.00
11987;BME280;6053;51.382;6.768;2023-02-12T01:33:52;103425.81;;;11.19;100.00
11987;BME280;6053;51.382;6.768;2023-02-12T01:36:22;103425.81;;;11.19;100.00
11987;BME280;6053;51.382;6.768;2023-02-12T01:38:51;103419.41;;;11.18;100.00
11987;BME280;6053;51.382;6.768;2023-02-12T01:41:22;103421.28;;;11.09;100.00
11987;BME280;6053;51.382;6.768;2023-02-12T01:44:07;103430.28;;;11.12;100.00
11987;BME280;6053;51.382;6.768;2023-02-12T01:46:37;103423.72;;;11.13;100.00
11987;BME280;6053;51.382;6.768;2023-02-12T01:49:09;103425.28;;;11.07;100.00
11987;BME280;6053;51.382;6.768;2023-02-12T01:51:40;103425.63;;;11.12;100.00
11987;BME280;6053;51.382;6.768;2023-02-12T01:54:12;103425.28;;;11.15;100.00
11987;BME280;6053;51.382;6.768;2023-02-12T01:56:44;103416.66;;;11.18;100.00
11987;BME280;6053;51.382;6.768;2023-02-12T01:59:13;103416.84;;;11.17;100.00
11987;BME280;6053;51.382;6.768;2023-02-12T02:01:41;103416.66;;;11.18;100.00
11987;BME280;6053;51.382;6.768;2023-02-12T02:04:15;103420.13;;;11.20;100.00
11987;BME280;6053;51.382;6.768;2023-02-12T02:06:47;103410.09;;;11.19;100.00
11987;BME280;6053;51.382;6.768;2023-02-12T02:09:19;103414.41;;;11.14;100.00
11987;BME280;6053;51.382;6.768;2023-02-12T02:11:49;103413.38;;;11.15;100.00
11987;BME280;6053;51.382;6.768;2023-02-12T02:14:35;103413.19;;;11.16;100.00
11987;BME280;6053;51.382;6.768;2023-02-12T02:17:39;103400.59;;;11.22;100.00
11987;BME280;6053;51.382;6.768;2023-02-12T02:29:52;103400.59;;;11.22;100.00
11987;BME280;6053;51.382;6.768;2023-02-12T02:32:29;103395.59;;;11.17;100.00
11987;BME280;6053;51.382;6.768;2023-02-12T02:35:03;103389.56;;;11.14;100.00
11987;BME280;6053;51.382;6.768;2023-02-12T02:37:39;103391.78;;;11.10;100.00
11987;BME280;6053;51.382;6.768;2023-02-12T02:40:14;103391.94;;;11.08;100.00
11987;BME280;6053;51.382;6.768;2023-02-12T02:42:50;103390.03;;;11.09;100.00
11987;BME280;6053;51.382;6.768;2023-02-12T02:45:24;103394.19;;;11.05;100.00
11987;BME280;6053;51.382;6.768;2023-02-12T02:48:01;103387.28;;;11.09;100.00
11987;BME280;6053;51.382;6.768;2023-02-12T02:50:34;103399.72;;;11.13;100.00
11987;BME280;6053;51.382;6.768;2023-02-12T02:53:10;103394.88;;;11.15;100.00
11987;BME280;6053;51.382;6.768;2023-02-12T02:55:43;103396.94;;;11.13;100.00
11987;BME280;6053;51.382;6.768;2023-02-12T02:58:16;103386.25;;;11.18;100.00
11987;BME280;6053;51.382;6.768;2023-02-12T03:00:49;103387.47;;;11.16;100.00
11987;BME280;6053;51.382;6.768;2023-02-12T03:03:26;103399.38;;;11.16;100.00
11987;BME280;6053;51.382;6.768;2023-02-12T03:05:59;103400.59;;;11.14;100.00
11987;BME280;6053;51.382;6.768;2023-02-12T03:08:33;103392.84;;;11.17;100.00
11987;BME280;6053;51.382;6.768;2023-02-12T03:11:06;103392.81;;;11.09;100.00
11987;BME280;6053;51.382;6.768;2023-02-12T03:13:41;103395.38;;;11.02;100.00
11987;BME280;6053;51.382;6.768;2023-02-12T03:16:15;103388.13;;;11.09;100.00
11987;BME280;6053;51.382;6.768;2023-02-12T03:18:51;103401.97;;;11.01;100.00
11987;BME280;6053;51.382;6.768;2023-02-12T03:21:27;103400.38;;;10.91;100.00
11987;BME280;6053;51.382;6.768;2023-02-12T03:24:01;103399.88;;;10.87;100.00
11987;BME280;6053;51.382;6.768;2023-02-12T03:26:37;103399.19;;;10.93;100.00
11987;BME280;6053;51.382;6.768;2023-02-12T03:29:08;103395.53;;;10.93;100.00
11987;BME280;6053;51.382;6.768;2023-02-12T03:31:44;103404.34;;;10.96;100.00
11987;BME280;6053;51.382;6.768;2023-02-12T03:34:26;103398.50;;;10.99;100.00
11987;BME280;6053;51.382;6.768;2023-02-12T03:37:01;103406.44;;;10.94;100.00
11987;BME280;6053;51.382;6.768;2023-02-12T03:39:37;103404.00;;;10.91;100.00
11987;BME280;6053;51.382;6.768;2023-02-12T03:42:15;103407.81;;;10.98;100.00
11987;BME280;6053;51.382;6.768;2023-02-12T03:44:50;103402.09;;;10.92;100.00
11987;BME280;6053;51.382;6.768;2023-02-12T03:47:23;103402.63;;;10.95;100.00
11987;BME280;6053;51.382;6.768;2023-02-12T03:50:00;103397.47;;;11.00;100.00
11987;BME280;6053;51.382;6.768;2023-02-12T03:52:30;103397.28;;;11.02;100.00
11987;BME280;6053;51.382;6.768;2023-02-12T03:54:59;103397.13;;;11.12;100.00
11987;BME280;6053;51.382;6.768;2023-02-12T03:57:31;103396.44;;;11.09;100.00
11987;BME280;6053;51.382;6.768;2023-02-12T04:00:03;103406.63;;;11.09;100.00
11987;BME280;6053;51.382;6.768;2023-02-12T04:02:33;103404.03;;;11.07;100.00
11987;BME280;6053;51.382;6.768;2023-02-12T04:05:06;103390.06;;;11.17;100.00
11987;BME280;6053;51.382;6.768;2023-02-12T04:07:35;103392.50;;;11.20;100.00
11987;BME280;6053;51.382;6.768;2023-02-12T04:10:05;103403.19;;;11.15;100.00
11987;BME280;6053;51.382;6.768;2023-02-12T04:12:39;103412.31;;;11.16;100.00
11987;BME280;6053;51.382;6.768;2023-02-12T04:15:29;103418.53;;;11.09;100.00
11987;BME280;6053;51.382;6.768;2023-02-12T04:18:09;103415.25;;;11.06;100.00
11987;BME280;6053;51.382;6.768;2023-02-12T04:20:52;103415.63;;;11.11;100.00
11987;BME280;6053;51.382;6.768;2023-02-12T04:26:22;103420.94;;;11.13;100.00
11987;BME280;6053;51.382;6.768;2023-02-12T04:29:03;103418.91;;;11.15;100.00
11987;BME280;6053;51.382;6.768;2023-02-12T04:31:38;103431.47;;;11.09;100.00
11987;BME280;6053;51.382;6.768;2023-02-12T04:34:16;103432.34;;;11.09;100.00
11987;BME280;6053;51.382;6.768;2023-02-12T04:36:51;103428.22;;;11.14;100.00
11987;BME280;6053;51.382;6.768;2023-02-12T04:39:25;103438.56;;;11.12;100.00
11987;BME280;6053;51.382;6.768;2023-02-12T04:41:57;103430.09;;;11.13;100.00
11987;BME280;6053;51.382;6.768;2023-02-12T04:44:28;103437.88;;;11.01;100.00
11987;BME280;6053;51.382;6.768;2023-02-12T04:46:57;103441.84;;;11.07;100.00
11987;BME280;6053;51.382;6.768;2023-02-12T04:49:26;103437.19;;;11.07;100.00
11987;BME280;6053;51.382;6.768;2023-02-12T04:51:56;103441.66;;;11.00;100.00
11987;BME280;6053;51.382;6.768;2023-02-12T04:54:24;103454.09;;;11.04;100.00
11987;BME280;6053;51.382;6.768;2023-02-12T04:56:53;103451.88;;;11.08;100.00
11987;BME280;6053;51.382;6.768;2023-02-12T04:59:22;103453.06;;;11.05;100.00
11987;BME280;6053;51.382;6.768;2023-02-12T05:01:51;103452.72;;;11.08;100.00
11987;BME280;6053;51.382;6.768;2023-02-12T05:04:20;103446.50;;;11.06;100.00
11987;BME280;6053;51.382;6.768;2023-02-12T05:06:49;103444.09;;;11.12;100.00
11987;BME280;6053;51.382;6.768;2023-02-12T05:09:20;103448.94;;;11.18;100.00
11987;BME280;6053;51.382;6.768;2023-02-12T05:11:48;103442.72;;;11.16;100.00
11987;BME280;6053;51.382;6.768;2023-02-12T05:14:17;103443.25;;;11.11;100.00
11987;BME280;6053;51.382;6.768;2023-02-12T05:16:46;103449.44;;;11.13;100.00
11987;BME280;6053;51.382;6.768;2023-02-12T05:19:14;103445.84;;;11.21;100.00
11987;BME280;6053;51.382;6.768;2023-02-12T05:21:43;103460.69;;;11.12;100.00
11987;BME280;6053;51.382;6.768;2023-02-12T05:24:12;103449.25;;;11.06;100.00
11987;BME280;6053;51.382;6.768;2023-02-12T05:26:42;103453.09;;;11.14;100.00
11987;BME280;6053;51.382;6.768;2023-02-12T05:29:10;103453.63;;;11.17;100.00
11987;BME280;6053;51.382;6.768;2023-02-12T05:31:39;103452.75;;;11.17;100.00
11987;BME280;6053;51.382;6.768;2023-02-12T05:34:10;103461.03;;;11.17;100.00
11987;BME280;6053;51.382;6.768;2023-02-12T05:36:39;103463.81;;;11.17;100.00
11987;BME280;6053;51.382;6.768;2023-02-12T05:39:09;103463.44;;;11.12;100.00
11987;BME280;6053;51.382;6.768;2023-02-12T05:41:37;103459.63;;;11.13;100.00
11987;BME280;6053;51.382;6.768;2023-02-12T05:44:07;103468.28;;;11.18;100.00
11987;BME280;6053;51.382;6.768;2023-02-12T05:46:38;103470.00;;;11.19;100.00
11987;BME280;6053;51.382;6.768;2023-02-12T05:49:07;103464.81;;;11.16;100.00
11987;BME280;6053;51.382;6.768;2023-02-12T05:51:36;103467.44;;;11.17;100.00
11987;BME280;6053;51.382;6.768;2023-02-12T05:54:07;103466.91;;;11.14;100.00
11987;BME280;6053;51.382;6.768;2023-02-12T05:56:37;103465.19;;;11.21;100.00
11987;BME280;6053;51.382;6.768;2023-02-12T05:59:14;103463.25;;;11.13;100.00
11987;BME280;6053;51.382;6.768;2023-02-12T06:01:44;103465.69;;;11.08;100.00
11987;BME280;6053;51.382;6.768;2023-02-12T06:04:15;103464.16;;;11.14;100.00
11987;BME280;6053;51.382;6.768;2023-02-12T06:06:44;103461.19;;;11.07;100.00
11987;BME280;6053;51.382;6.768;2023-02-12T06:09:13;103463.78;;;11.08;100.00
11987;BME280;6053;51.382;6.768;2023-02-12T06:11:42;103465.50;;;11.09;100.00
11987;BME280;6053;51.382;6.768;2023-02-12T06:14:14;103458.09;;;11.10;100.00
11987;BME280;6053;51.382;6.768;2023-02-12T06:16:44;103468.06;;;11.03;100.00
11987;BME280;6053;51.382;6.768;2023-02-12T06:19:14;103462.91;;;11.08;100.00
11987;BME280;6053;51.382;6.768;2023-02-12T06:21:42;103463.44;;;11.03;100.00
11987;BME280;6053;51.382;6.768;2023-02-12T06:24:13;103466.00;;;11.05;100.00
11987;BME280;6053;51.382;6.768;2023-02-12T06:26:42;103463.06;;;11.06;100.00
11987;BME280;6053;51.382;6.768;2023-02-12T06:29:12;103475.53;;;11.11;100.00
11987;BME280;6053;51.382;6.768;2023-02-12T06:31:41;103473.25;;;11.06;100.00
11987;BME280;6053;51.382;6.768;2023-02-12T06:34:11;103477.25;;;11.03;100.00
11987;BME280;6053;51.382;6.768;2023-02-12T06:36:41;103468.41;;;11.00;100.00
11987;BME280;6053;51.382;6.768;2023-02-12T06:39:13;103476.69;;;11.00;100.00
11987;BME280;6053;51.382;6.768;2023-02-12T06:41:42;103483.28;;;11.07;100.00
11987;BME280;6053;51.382;6.768;2023-02-12T06:44:13;103480.69;;;11.05;100.00
11987;BME280;6053;51.382;6.768;2023-02-12T06:46:41;103479.50;;;11.08;100.00
11987;BME280;6053;51.382;6.768;2023-02-12T06:49:12;103482.25;;;11.08;100.00
11987;BME280;6053;51.382;6.768;2023-02-12T06:51:42;103484.34;;;11.14;100.00
11987;BME280;6053;51.382;6.768;2023-02-12T06:54:15;103484.81;;;11.09;100.00
11987;BME280;6053;51.382;6.768;2023-02-12T06:56:44;103491.59;;;11.07;100.00
11987;BME280;6053;51.382;6.768;2023-02-12T06:59:15;103492.09;;;11.11;100.00
11987;BME280;6053;51.382;6.768;2023-02-12T07:01:44;103490.53;;;11.08;100.00
11987;BME280;6053;51.382;6.768;2023-02-12T07:04:13;103494.31;;;10.99;100.00
11987;BME280;6053;51.382;6.768;2023-02-12T07:06:42;103493.97;;;11.02;100.00
11987;BME280;6053;51.382;6.768;2023-02-12T07:09:10;103496.59;;;11.03;100.00
11987;BME280;6053;51.382;6.768;2023-02-12T07:11:39;103496.06;;;11.08;100.00
11987;BME280;6053;51.382;6.768;2023-02-12T07:14:11;103496.97;;;11.17;100.00
11987;BME280;6053;51.382;6.768;2023-02-12T07:16:42;103502.84;;;11.22;100.00
11987;BME280;6053;51.382;6.768;2023-02-12T07:19:12;103501.44;;;11.18;100.00
11987;BME280;6053;51.382;6.768;2023-02-12T07:21:42;103501.59;;;11.08;100.00
11987;BME280;6053;51.382;6.768;2023-02-12T07:24:12;103507.63;;;11.12;100.00
11987;BME280;6053;51.382;6.768;2023-02-12T07:26:41;103499.53;;;11.10;100.00
11987;BME280;6053;51.382;6.768;2023-02-12T07:29:10;103502.81;;;11.14;100.00
11987;BME280;6053;51.382;6.768;2023-02-12T07:31:40;103506.97;;;11.18;100.00
11987;BME280;6053;51.382;6.768;2023-02-12T07:34:10;103507.16;;;11.24;100.00
11987;BME280;6053;51.382;6.768;2023-02-12T07:36:38;103512.69;;;11.24;100.00
11987;BME280;6053;51.382;6.768;2023-02-12T07:39:11;103505.25;;;11.25;100.00
11987;BME280;6053;51.382;6.768;2023-02-12T07:41:40;103501.44;;;11.26;100.00
11987;BME280;6053;51.382;6.768;2023-02-12T07:44:10;103511.13;;;11.22;100.00
11987;BME280;6053;51.382;6.768;2023-02-12T07:46:42;103513.03;;;11.21;100.00
11987;BME280;6053;51.382;6.768;2023-02-12T07:49:16;103506.81;;;11.27;100.00
11987;BME280;6053;51.382;6.768;2023-02-12T07:55:26;103515.78;;;11.29;100.00
11987;BME280;6053;51.382;6.768;2023-02-12T07:58:12;103520.47;;;11.29;100.00
11987;BME280;6053;51.382;6.768;2023-02-12T08:00:40;103530.13;;;11.33;100.00
11987;BME280;6053;51.382;6.768;2023-02-12T08:03:16;103517.03;;;11.35;100.00
11987;BME280;6053;51.382;6.768;2023-02-12T08:09:32;103531.69;;;11.36;100.00
11987;BME280;6053;51.382;6.768;2023-02-12T08:12:37;103540.69;;;11.38;100.00
11987;BME280;6053;51.382;6.768;2023-02-12T08:18:57;103533.06;;;11.23;100.00
11987;BME280;6053;51.382;6.768;2023-02-12T08:22:05;103544.81;;;11.25;100.00
11987;BME280;6053;51.382;6.768;2023-02-12T08:28:22;103542.72;;;11.19;100.00
11987;BME280;6053;51.382;6.768;2023-02-12T08:37:55;103554.00;;;11.42;100.00
11987;BME280;6053;51.382;6.768;2023-02-12T08:51:06;103549.84;;;11.46;100.00
11987;BME280;6053;51.382;6.768;2023-02-12T08:53:37;103547.47;;;11.51;100.00
11987;BME280;6053;51.382;6.768;2023-02-12T08:56:07;103555.06;;;11.57;100.00
11987;BME280;6053;51.382;6.768;2023-02-12T08:58:36;103551.25;;;11.67;100.00
11987;BME280;6053;51.382;6.768;2023-02-12T09:01:09;103552.66;;;11.54;100.00
11987;BME280;6053;51.382;6.768;2023-02-12T09:03:38;103559.41;;;11.68;100.00
11987;BME280;6053;51.382;6.768;2023-02-12T09:06:07;103554.78;;;11.85;100.00
11987;BME280;6053;51.382;6.768;2023-02-12T09:08:38;103549.56;;;11.82;100.00
11987;BME280;6053;51.382;6.768;2023-02-12T09:11:10;103561.31;;;11.68;100.00
11987;BME280;6053;51.382;6.768;2023-02-12T09:13:39;103561.66;;;11.73;100.00
11987;BME280;6053;51.382;6.768;2023-02-12T09:16:08;103556.69;;;11.93;100.00
11987;BME280;6053;51.382;6.768;2023-02-12T09:18:37;103553.22;;;11.99;100.00
11987;BME280;6053;51.382;6.768;2023-02-12T09:21:08;103552.34;;;12.07;100.00
11987;BME280;6053;51.382;6.768;2023-02-12T09:23:39;103561.72;;;11.97;100.00
11987;BME280;6053;51.382;6.768;2023-02-12T09:26:09;103566.00;;;12.16;100.00
11987;BME280;6053;51.382;6.768;2023-02-12T09:28:38;103564.81;;;12.19;100.00
11987;BME280;6053;51.382;6.768;2023-02-12T09:31:08;103571.91;;;12.21;100.00
11987;BME280;6053;51.382;6.768;2023-02-12T09:33:38;103557.56;;;12.01;100.00
11987;BME280;6053;51.382;6.768;2023-02-12T09:36:08;103563.59;;;12.05;100.00
11987;BME280;6053;51.382;6.768;2023-02-12T09:38:39;103558.91;;;12.22;100.00
11987;BME280;6053;51.382;6.768;2023-02-12T09:44:09;103564.78;;;12.35;100.00
11987;BME280;6053;51.382;6.768;2023-02-12T09:46:44;103561.31;;;12.41;100.00
11987;BME280;6053;51.382;6.768;2023-02-12T09:49:22;103557.16;;;12.45;100.00
11987;BME280;6053;51.382;6.768;2023-02-12T09:51:54;103569.78;;;12.48;100.00
11987;BME280;6053;51.382;6.768;2023-02-12T09:54:31;103564.91;;;12.50;100.00
11987;BME280;6053;51.382;6.768;2023-02-12T09:57:16;103563.75;;;12.44;100.00
11987;BME280;6053;51.382;6.768;2023-02-12T09:59:50;103570.66;;;12.48;100.00
11987;BME280;6053;51.382;6.768;2023-02-12T10:02:21;103568.53;;;12.50;100.00
11987;BME280;6053;51.382;6.768;2023-02-12T10:04:51;103572.88;;;12.61;100.00
11987;BME280;6053;51.382;6.768;2023-02-12T10:07:51;103575.09;;;12.66;100.00
11987;BME280;6053;51.382;6.768;2023-02-12T10:10:36;103571.28;;;12.75;100.00
11987;BME280;6053;51.382;6.768;2023-02-12T10:13:12;103578.53;;;12.76;100.00
11987;BME280;6053;51.382;6.768;2023-02-12T10:15:51;103575.97;;;12.74;100.00
11987;BME280;6053;51.382;6.768;2023-02-12T10:18:42;103575.28;;;12.64;100.00
11987;BME280;6053;51.382;6.768;2023-02-12T10:21:23;103577.41;;;12.54;100.00
11987;BME280;6053;51.382;6.768;2023-02-12T10:24:10;103580.28;;;12.61;100.00
11987;BME280;6053;51.382;6.768;2023-02-12T10:26:43;103574.41;;;12.64;100.00
11987;BME280;6053;51.382;6.768;2023-02-12T10:29:18;103571.81;;;12.62;100.00
11987;BME280;6053;51.382;6.768;2023-02-12T10:31:51;103575.09;;;12.66;100.00
11987;BME280;6053;51.382;6.768;2023-02-12T10:34:23;103572.75;;;12.06;100.00
11987;BME280;6053;51.382;6.768;2023-02-12T10:36:57;103574.31;;;12.24;100.00
11987;BME280;6053;51.382;6.768;2023-02-12T10:39:32;103571.50;;;12.49;100.00
11987;BME280;6053;51.382;6.768;2023-02-12T10:42:10;103566.09;;;12.72;100.00
11987;BME280;6053;51.382;6.768;2023-02-12T10:44:39;103568.66;;;12.82;100.00
11987;BME280;6053;51.382;6.768;2023-02-12T10:47:16;103565.69;;;12.91;100.00
11987;BME280;6053;51.382;6.768;2023-02-12T10:49:54;103575.22;;;12.89;100.00
11987;BME280;6053;51.382;6.768;2023-02-12T10:52:33;103570.56;;;12.73;100.00
11987;BME280;6053;51.382;6.768;2023-02-12T10:55:23;103571.28;;;12.67;100.00
11987;BME280;6053;51.382;6.768;2023-02-12T10:57:55;103563.16;;;12.65;100.00
11987;BME280;6053;51.382;6.768;2023-02-12T11:00:28;103557.66;;;11.84;98.59
11987;BME280;6053;51.382;6.768;2023-02-12T11:03:18;103555.47;;;12.28;100.00
11987;BME280;6053;51.382;6.768;2023-02-12T11:05:48;103558.91;;;12.38;100.00
11987;BME280;6053;51.382;6.768;2023-02-12T11:08:30;103555.75;;;12.49;100.00
11987;BME280;6053;51.382;6.768;2023-02-12T11:11:07;103554.50;;;12.60;100.00
11987;BME280;6053;51.382;6.768;2023-02-12T11:13:40;103557.72;;;12.16;100.00
11987;BME280;6053;51.382;6.768;2023-02-12T11:16:12;103554.75;;;12.34;100.00
11987;BME280;6053;51.382;6.768;2023-02-12T11:18:41;103545.03;;;12.55;100.00
11987;BME280;6053;51.382;6.768;2023-02-12T11:21:11;103550.28;;;12.81;100.00
11987;BME280;6053;51.382;6.768;2023-02-12T11:23:41;103552.00;;;12.90;100.00
11987;BME280;6053;51.382;6.768;2023-02-12T11:26:24;103549.06;;;12.91;100.00
11987;BME280;6053;51.382;6.768;2023-02-12T11:28:57;103546.78;;;12.47;92.41
11987;BME280;6053;51.382;6.768;2023-02-12T11:31:27;103544.53;;;12.51;100.00
11987;BME280;6053;51.382;6.768;2023-02-12T11:34:13;103542.59;;;12.52;100.00
11987;BME280;6053;51.382;6.768;2023-02-12T11:36:44;103541.09;;;12.33;93.67
11987;BME280;6053;51.382;6.768;2023-02-12T11:39:19;103536.22;;;12.43;100.00
11987;BME280;6053;51.382;6.768;2023-02-12T11:41:51;103532.78;;;12.41;96.45
11987;BME280;6053;51.382;6.768;2023-02-12T11:44:25;103535.88;;;12.46;100.00
11987;BME280;6053;51.382;6.768;2023-02-12T11:46:56;103535.28;;;12.67;100.00
11987;BME280;6053;51.382;6.768;2023-02-12T11:49:29;103529.22;;;12.63;99.06
11987;BME280;6053;51.382;6.768;2023-02-12T11:52:00;103523.34;;;12.66;100.00
11987;BME280;6053;51.382;6.768;2023-02-12T11:54:35;103531.66;;;12.66;100.00
11987;BME280;6053;51.382;6.768;2023-02-12T11:57:06;103530.69;;;12.51;100.00
11987;BME280;6053;51.382;6.768;2023-02-12T11:59:37;103527.38;;;12.56;99.54
11987;BME280;6053;51.382;6.768;2023-02-12T12:02:18;103516.91;;;12.18;100.00
11987;BME280;6053;51.382;6.768;2023-02-12T12:04:54;103523.09;;;12.29;100.00
11987;BME280;6053;51.382;6.768;2023-02-12T12:07:26;103518.00;;;12.57;100.00
11987;BME280;6053;51.382;6.768;2023-02-12T12:10:00;103521.22;;;12.77;100.00
11987;BME280;6053;51.382;6.768;2023-02-12T12:12:38;103520.88;;;12.80;100.00
11987;BME280;6053;51.382;6.768;2023-02-12T12:15:18;103514.72;;;12.61;100.00
11987;BME280;6053;51.382;6.768;2023-02-12T12:18:16;103509.44;;;12.83;100.00
11987;BME280;6053;51.382;6.768;2023-02-12T12:21:10;103508.44;;;12.67;93.23
11987;BME280;6053;51.382;6.768;2023-02-12T12:23:43;103508.53;;;12.51;100.00
11987;BME280;6053;51.382;6.768;2023-02-12T12:26:19;103501.38;;;12.65;100.00
11987;BME280;6053;51.382;6.768;2023-02-12T12:28:52;103498.59;;;11.85;97.67
11987;BME280;6053;51.382;6.768;2023-02-12T12:31:29;103494.06;;;12.16;100.00
11987;BME280;6053;51.382;6.768;2023-02-12T12:34:04;103494.25;;;12.15;100.00
11987;BME280;6053;51.382;6.768;2023-02-12T12:39:52;103487.16;;;12.12;99.52
11987;BME280;6053;51.382;6.768;2023-02-12T12:46:00;103481.59;;;12.29;100.00
11987;BME280;6053;51.382;6.768;2023-02-12T12:48:43;103470.59;;;12.04;100.00
11987;BME280;6053;51.382;6.768;2023-02-12T12:51:28;103472.06;;;12.31;100.00
11987;BME280;6053;51.382;6.768;2023-02-12T12:54:11;103467.84;;;12.52;100.00
11987;BME280;6053;51.382;6.768;2023-02-12T12:56:57;103462.47;;;12.50;100.00
11987;BME280;6053;51.382;6.768;2023-02-12T12:59:40;103463.09;;;12.68;100.00
11987;BME280;6053;51.382;6.768;2023-02-12T13:05:42;103462.72;;;12.32;100.00
11987;BME280;6053;51.382;6.768;2023-02-12T13:08:28;103447.25;;;12.54;100.00
11987;BME280;6053;51.382;6.768;2023-02-12T13:11:08;103450.56;;;12.81;100.00
11987;BME280;6053;51.382;6.768;2023-02-12T13:13:44;103443.81;;;12.83;100.00
11987;BME280;6053;51.382;6.768;2023-02-12T13:16:17;103453.16;;;12.82;100.00
11987;BME280;6053;51.382;6.768;2023-02-12T13:18:55;103446.81;;;12.34;93.32
11987;BME280;6053;51.382;6.768;2023-02-12T13:21:37;103448.84;;;12.40;97.13
11987;BME280;6053;51.382;6.768;2023-02-12T13:24:20;103440.81;;;12.54;100.00
11987;BME280;6053;51.382;6.768;2023-02-12T13:26:54;103439.19;;;12.67;100.00
11987;BME280;6053;51.382;6.768;2023-02-12T13:29:27;103432.00;;;12.58;100.00
11987;BME280;6053;51.382;6.768;2023-02-12T13:32:00;103434.63;;;12.83;100.00
11987;BME280;6053;51.382;6.768;2023-02-12T13:34:31;103424.91;;;12.87;100.00
11987;BME280;6053;51.382;6.768;2023-02-12T13:37:05;103427.97;;;12.61;92.37
11987;BME280;6053;51.382;6.768;2023-02-12T13:39:37;103431.47;;;12.15;94.28
11987;BME280;6053;51.382;6.768;2023-02-12T13:42:15;103431.31;;;12.56;100.00
11987;BME280;6053;51.382;6.768;2023-02-12T13:44:56;103425.53;;;12.66;100.00
11987;BME280;6053;51.382;6.768;2023-02-12T13:47:33;103428.78;;;12.38;94.34
11987;BME280;6053;51.382;6.768;2023-02-12T13:50:12;103430.16;;;12.42;100.00
11987;BME280;6053;51.382;6.768;2023-02-12T13:52:53;103426.69;;;12.40;100.00
11987;BME280;6053;51.382;6.768;2023-02-12T13:55:30;103421.34;;;12.31;94.66
11987;BME280;6053;51.382;6.768;2023-02-12T13:58:38;103424.44;;;11.64;95.17
11987;BME280;6053;51.382;6.768;2023-02-12T14:01:08;103422.34;;;11.98;97.45
11987;BME280;6053;51.382;6.768;2023-02-12T14:03:38;103424.69;;;12.26;100.00
11987;BME280;6053;51.382;6.768;2023-02-12T14:06:13;103421.72;;;12.67;100.00
11987;BME280;6053;51.382;6.768;2023-02-12T14:08:46;103426.03;;;12.69;100.00
11987;BME280;6053;51.382;6.768;2023-02-12T14:11:18;103421.41;;;12.62;99.71
11987;BME280;6053;51.382;6.768;2023-02-12T14:13:54;103423.91;;;12.80;100.00
11987;BME280;6053;51.382;6.768;2023-02-12T14:16:38;103429.28;;;12.81;100.00
11987;BME280;6053;51.382;6.768;2023-02-12T14:19:39;103433.63;;;12.36;96.26
11987;BME280;6053;51.382;6.768;2023-02-12T14:25:40;103426.53;;;12.73;100.00